createdAt,value
2022-11-19T00:28:18.594Z,6.30
2022-11-19T00:38:23.027Z,6.20
2022-11-19T01:30:14.812Z,6.90
2022-11-19T01:35:07.391Z,6.80
2022-11-19T01:40:48.232Z,6.70
2022-11-19T01:51:52.149Z,6.60
2022-11-19T01:56:43.947Z,6.50
2022-11-19T02:01:35.814Z,6.60
2022-11-19T02:06:33.389Z,6.60
2022-11-19T02:12:03.051Z,6.60
2022-11-19T02:17:31.792Z,6.60
2022-11-19T02:22:53.068Z,6.80
2022-11-19T02:28:10.079Z,6.90
2022-11-19T02:33:25.632Z,7.00
2022-11-19T02:38:49.848Z,7.10
2022-11-19T02:43:44.298Z,7.20
2022-11-19T02:48:46.516Z,7.30
2022-11-19T02:53:38.264Z,7.40
2022-11-19T02:58:51.471Z,7.40
2022-11-19T03:04:01.889Z,7.50
2022-11-19T03:08:54.019Z,7.70
2022-11-19T03:14:19.378Z,7.70
2022-11-19T03:19:43.124Z,7.80
2022-11-19T03:24:43.475Z,7.90
2022-11-19T03:29:43.032Z,7.90
2022-11-19T03:34:39.871Z,8.00
2022-11-19T03:39:37.573Z,7.90
2022-11-19T03:44:50.680Z,7.90
2022-11-19T03:49:47.289Z,8.00
2022-11-19T03:54:41.178Z,7.80
2022-11-19T03:59:33.000Z,7.70
2022-11-19T04:04:39.558Z,7.70
2022-11-19T04:09:31.420Z,7.80
2022-11-19T04:14:23.212Z,7.80
2022-11-19T04:19:15.134Z,7.70
2022-11-19T04:24:07.439Z,7.50
2022-11-19T04:28:59.147Z,7.50
2022-11-19T04:33:50.916Z,7.50
2022-11-19T04:38:42.684Z,7.50
2022-11-19T04:43:34.545Z,7.50
2022-11-19T04:48:26.451Z,7.30
2022-11-19T04:53:18.847Z,7.10
2022-11-19T04:58:10.729Z,7.10
2022-11-19T10:25:15.118Z,10.00
2022-11-19T16:12:02.762Z,9.00
2022-11-19T17:41:55.943Z,8.80
2022-11-19T18:27:53.771Z,8.10
